Cole Camp, MO (65325)

2:23 PM CDT on April 26, 2017 (GMT -0500)
N Hughes Ave | | Change Station

Elev 1089 ft 38.44 °N, 92.99 °W | Updated 16 seconds ago

Rain
Rain
45.9 °F
Feels Like 43 °F
N
6.0
Wind Variable Wind from ESE

Today
High -- | Low -- °F
--% Chance of Precip.
Yesterday
High -- | Low -- °F
Precip. -- in
Pressure 29.61 in
Visibility 1.5 miles
Clouds Scattered Clouds 400 ft
Mostly Cloudy 800 ft
Overcast 1200 ft
Windchill 43 °F
Dew Point 44 °F
Humidity 93%
Rainfall 1.90 in
Snow Depth Not available.
6:21 AM 8:00 PM
New Moon, 0% visible
SPECI KDMO 261915Z AUTO 32006KT 1 1/2SM RA BR SCT004 BKN008 OVC012 08/08 A2961 RMK AO2 P0005 T00780078 TSNO
Pressure 29.61 in
Visibility 1.5 miles
Clouds Scattered Clouds 400 ft
Mostly Cloudy 800 ft
Overcast 1200 ft
Windchill 43 °F
Dew Point 44 °F
Humidity 93%
Rainfall 1.90 in
Snow Depth Not available.
6:21 AM 8:00 PM
New Moon, 0% visible
SPECI KDMO 261915Z AUTO 32006KT 1 1/2SM RA BR SCT004 BKN008 OVC012 08/08 A2961 RMK AO2 P0005 T00780078 TSNO

Get Severe Weather Alerts

Thanks for signing up!

Be on the lookout for a verification email in your inbox.

You'll start receiving the daily forecast at 8 AM.

×

10-Day Weather Forecast

Almanac

Astronomy

Apr. 26, 2017 Rise Set
Actual Time
Civil Twilight
Nautical Twilight
Astronomical Twilight
Moon
Length of Visible Light
Length of Day
Tomorrow will be .
, % of the Moon is Illuminated

Today's Extremes

State Highs State Lows

Community

WunderPhotos

WunderBlog® & News

Nearby

Air Quality

  Air Quality AQ Index Pollutant
Not available.

Snow Depth

Station Depth Elevation

Earthquake Activity

City Distance Mag. Time & Date
Minimum magnitude displayed is 2.5.

Coastal Water Temperatures

Place Temperature

Stations

Nearby Weather Stations

Station Location Temp. Windchill Dew Point Humidity Wind Precip. Elev Updated Type
                   

Watches & Warnings

There are currently no watches in effect.